Time;durP1;ratioP1;P1;durP2;ratioP2;P2;SDS_P1;SDS_P2;PMS_P1;PMS_P2;Temp;Humidity;BMP_temperature;BMP_pressure;BME280_temperature;BME280_humidity;BME280_pressure;Samples;Min_cycle;Max_cycle;Signal;HPM_P1;HPM_P2
2021/12/08 11:15:02;;;;;;;9.20;2.03;;;;;;;5.61;83.00;99476.44;5332893;27;20365;-71
2021/12/08 11:17:35;;;;;;;6.43;1.67;;;;;;;5.83;82.39;99497.69;5330870;27;20036;-72
2021/12/08 11:20:16;;;;;;;13.60;2.13;;;;;;;5.90;84.84;99493.78;5330573;27;20016;-72
2021/12/08 11:23:02;;;;;;;9.07;1.70;;;;;;;6.01;83.09;99511.28;5332828;27;20423;-73
2021/12/08 11:25:41;;;;;;;6.17;2.67;;;;;;;6.08;82.99;99506.56;5332372;27;20015;-72
2021/12/08 11:28:33;;;;;;;7.50;1.73;;;;;;;6.15;83.63;99493.09;5328273;27;20030;-73
2021/12/08 11:31:12;;;;;;;8.13;1.80;;;;;;;6.15;82.21;99503.50;5330052;27;20107;-72
2021/12/08 11:33:58;;;;;;;5.43;1.43;;;;;;;6.21;82.44;99512.69;5331105;27;20031;-74
2021/12/08 11:36:33;;;;;;;8.77;1.90;;;;;;;6.20;80.88;99512.75;5329735;27;20015;-73
2021/12/08 11:39:06;;;;;;;;;;;;;;;6.34;84.97;99517.94;5329798;27;20015;-73
2021/12/08 11:42:00;;;;;;;5.97;1.67;;;;;;;6.25;81.09;99521.94;5331824;27;20361;-73
2021/12/08 11:44:34;;;;;;;8.97;1.50;;;;;;;6.21;81.69;99528.28;5328561;27;20058;-73
2021/12/08 11:47:09;;;;;;;7.28;1.77;;;;;;;6.25;81.17;99539.34;5331384;27;20019;-73
2021/12/08 11:49:47;;;;;;;7.43;2.50;;;;;;;6.30;79.29;99521.69;5327476;28;20015;-71
2021/12/08 11:52:29;;;;;;;6.43;2.07;;;;;;;6.27;81.29;99532.25;5329786;27;20007;-72
2021/12/08 11:55:02;;;;;;;5.13;1.67;;;;;;;6.27;81.24;99538.28;5339280;27;20028;-71
2021/12/08 11:57:37;;;;;;;8.37;1.60;;;;;;;6.28;79.31;99549.53;5340398;27;20024;-71
2021/12/08 12:00:20;;;;;;;6.63;1.67;;;;;;;6.28;79.88;99539.94;5329405;27;20027;-73
2021/12/08 12:03:00;;;;;;;3.77;1.90;;;;;;;6.29;80.55;99546.00;5328852;27;20084;-75
2021/12/08 12:05:34;;;;;;;6.00;2.00;;;;;;;6.35;79.57;99552.59;5331596;27;20041;-73
2021/12/08 12:08:09;;;;;;;7.93;1.67;;;;;;;6.28;78.97;99560.75;5327413;27;20077;-73
2021/12/08 12:10:49;;;;;;;10.97;2.53;;;;;;;6.32;79.90;99569.19;5330970;27;20723;-73
2021/12/08 12:13:21;;;;;;;7.30;1.63;;;;;;;6.29;80.10;99572.84;5330839;27;20047;-74
2021/12/08 12:15:53;;;;;;;5.50;1.50;;;;;;;6.34;80.07;99574.31;5330730;27;20031;-72
2021/12/08 12:18:31;;;;;;;8.03;1.83;;;;;;;6.36;80.19;99582.84;5327783;27;20041;-72
2021/12/08 12:21:24;;;;;;;6.50;1.90;;;;;;;6.45;80.04;99590.09;5331258;27;20023;-71
2021/12/08 12:24:15;;;;;;;5.67;1.47;;;;;;;6.32;78.75;99599.59;5315053;27;20027;-74
2021/12/08 12:27:14;;;;;;;9.37;1.60;;;;;;;6.37;79.46;99600.13;5300763;28;20490;-75
2021/12/08 12:30:03;;;;;;;7.73;1.60;;;;;;;6.26;78.99;99587.78;5311444;28;20477;-70
2021/12/08 12:32:45;;;;;;;4.97;1.67;;;;;;;6.33;78.16;99598.66;5315306;28;20107;-71
2021/12/08 12:35:21;;;;;;;7.60;1.97;;;;;;;6.29;79.01;99609.25;5316014;28;20085;-71
2021/12/08 12:38:11;;;;;;;6.93;2.07;;;;;;;6.23;80.22;99606.19;5314093;28;20062;-71
2021/12/08 12:40:50;;;;;;;7.77;2.13;;;;;;;6.28;79.28;99614.53;5317041;28;20077;-71
2021/12/08 12:43:37;;;;;;;6.23;2.33;;;;;;;6.20;79.90;99615.00;5315240;28;20489;-71
2021/12/08 12:46:15;;;;;;;5.87;1.73;;;;;;;6.20;79.28;99620.19;5316365;28;20616;-72
2021/12/08 12:48:51;;;;;;;6.17;1.37;;;;;;;6.18;79.17;99624.66;5313200;28;20035;-73
2021/12/08 12:51:26;;;;;;;4.87;1.63;;;;;;;6.14;79.52;99616.19;5315628;28;20028;-73
2021/12/08 12:53:58;;;;;;;12.47;2.23;;;;;;;6.17;79.61;99625.59;5316764;27;20031;-73
2021/12/08 12:56:29;;;;;;;7.67;2.43;;;;;;;6.09;80.13;99623.44;5316360;28;20058;-72
2021/12/08 12:59:17;;;;;;;5.40;2.07;;;;;;;6.16;81.27;99608.34;5312112;28;20027;-73
2021/12/08 13:02:22;;;;;;;12.37;3.67;;;;;;;6.22;81.78;99613.16;5299536;28;20020;-74
2021/12/08 13:05:08;;;;;;;12.88;1.50;;;;;;;6.19;81.07;99605.53;5316592;28;20030;-73
2021/12/08 13:07:56;;;;;;;10.70;1.97;;;;;;;6.19;80.98;99596.91;5312835;28;20012;-73
2021/12/08 13:10:38;;;;;;;6.10;2.37;;;;;;;6.18;81.46;99603.84;5314892;28;20455;-73
2021/12/08 13:13:15;;;;;;;10.73;1.90;;;;;;;6.23;80.56;99611.38;5315602;28;20044;-73
2021/12/08 13:15:47;;;;;;;11.23;2.10;;;;;;;6.23;80.57;99609.59;5298129;27;20658;-73
2021/12/08 13:18:21;;;;;;;9.70;2.40;;;;;;;6.25;80.00;99615.56;5311892;28;20073;-74
2021/12/08 13:20:56;;;;;;;7.43;1.60;;;;;;;6.22;80.44;99622.69;5316004;28;20055;-73
2021/12/08 13:23:30;;;;;;;9.17;2.50;;;;;;;6.21;80.47;99627.09;5315737;27;20015;-73
2021/12/08 13:26:10;;;;;;;7.85;2.40;;;;;;;6.23;81.45;99625.22;5316131;28;20027;-74
2021/12/08 13:28:50;;;;;;;8.73;1.80;;;;;;;6.21;80.53;99632.28;5312534;28;20381;-72
2021/12/08 13:34:08;;;;;;;7.27;2.10;;;;;;;6.19;79.74;99636.75;5314979;28;20027;-74
2021/12/08 13:36:45;;;;;;;7.95;2.05;;;;;;;6.20;79.59;99646.19;5314483;28;20161;-73
2021/12/08 13:39:26;;;;;;;10.90;2.10;;;;;;;6.12;79.96;99638.88;5313363;28;20037;-73
2021/12/08 13:42:09;;;;;;;7.10;2.90;;;;;;;6.17;79.74;99649.84;5314217;28;20050;-73
2021/12/08 13:44:51;;;;;;;8.17;2.40;;;;;;;6.21;80.87;99645.28;5315060;28;20029;-73
2021/12/08 13:47:30;;;;;;;7.03;2.13;;;;;;;6.21;79.72;99641.84;5314452;28;20072;-73
2021/12/08 13:50:13;;;;;;;7.50;2.93;;;;;;;6.13;78.83;99650.94;5312019;28;20185;-73
2021/12/08 13:53:06;;;;;;;8.33;2.13;;;;;;;6.16;79.60;99645.53;5311679;28;20027;-74
2021/12/08 13:55:41;;;;;;;5.80;2.20;;;;;;;6.16;78.84;99653.34;5331883;27;20034;-74
2021/12/08 13:58:22;;;;;;;6.17;1.90;;;;;;;6.10;80.30;99651.13;5311260;28;20016;-75
2021/12/08 14:00:56;;;;;;;8.83;3.07;;;;;;;5.98;79.27;99647.47;5314760;28;20092;-76
2021/12/08 14:03:36;;;;;;;4.15;1.65;;;;;;;6.11;79.33;99668.38;5313596;28;20016;-85
2021/12/08 14:06:09;;;;;;;9.47;2.47;;;;;;;5.93;78.87;99659.91;5315702;28;20020;-78
2021/12/08 14:08:45;;;;;;;5.77;2.27;;;;;;;6.12;78.25;99669.22;5311281;27;20077;-76
2021/12/08 14:11:19;;;;;;;10.77;2.07;;;;;;;6.00;79.51;99661.22;5310655;28;20471;-73
2021/12/08 14:13:53;;;;;;;9.25;2.05;;;;;;;6.07;79.41;99669.50;5305885;28;20051;-71
2021/12/08 14:16:25;;;;;;;7.80;1.90;;;;;;;6.04;78.88;99669.66;5311343;27;20023;-72
2021/12/08 14:18:58;;;;;;;7.80;2.27;;;;;;;6.10;78.72;99676.28;5304744;27;20042;-72
2021/12/08 14:21:33;;;;;;;9.43;2.37;;;;;;;6.16;78.91;99688.94;5301909;28;21853;-74
2021/12/08 14:24:10;;;;;;;8.65;3.10;;;;;;;6.09;78.14;99685.03;5302379;28;20042;-73
2021/12/08 14:26:41;;;;;;;9.97;2.53;;;;;;;6.11;78.33;99688.38;5302740;28;20041;-74
2021/12/08 14:29:22;;;;;;;8.27;3.73;;;;;;;6.05;78.31;99685.22;5300087;27;20486;-73
2021/12/08 14:31:56;;;;;;;5.57;2.53;;;;;;;6.01;79.50;99669.84;5307119;27;20066;-74
2021/12/08 14:34:34;;;;;;;6.97;2.85;;;;;;;6.00;79.58;99675.97;5301336;28;20255;-78
2021/12/08 14:37:10;;;;;;;7.67;2.10;;;;;;;6.03;79.49;99692.22;5303467;28;20059;-74
2021/12/08 14:39:48;;;;;;;8.30;2.03;;;;;;;6.07;79.60;99686.88;5308829;27;20027;-76
2021/12/08 14:42:24;;;;;;;7.50;3.13;;;;;;;6.01;79.12;99688.88;5311124;27;20447;-78
2021/12/08 14:45:06;;;;;;;7.83;2.83;;;;;;;5.96;80.56;99692.66;5304659;27;20015;-75
2021/12/08 14:47:42;;;;;;;9.47;2.77;;;;;;;5.86;80.34;99695.81;5299925;27;20413;-77
2021/12/08 14:50:20;;;;;;;8.90;2.73;;;;;;;5.95;80.13;99691.84;5306466;27;20066;-76
2021/12/08 14:52:52;;;;;;;9.87;2.27;;;;;;;5.94;80.22;99705.75;5302848;28;20027;-76
2021/12/08 14:55:23;;;;;;;9.67;2.40;;;;;;;5.84;79.88;99696.81;5300867;28;20035;-74
2021/12/08 14:57:55;;;;;;;7.97;2.30;;;;;;;5.89;80.33;99715.59;5297607;28;20114;-73
2021/12/08 15:00:29;;;;;;;11.73;2.33;;;;;;;5.96;79.75;99726.44;5303338;27;20039;-76
2021/12/08 15:03:14;;;;;;;8.63;2.30;;;;;;;5.89;80.41;99712.97;5299865;28;20817;-75
2021/12/08 15:05:48;;;;;;;11.05;3.35;;;;;;;5.85;81.13;99714.91;5302455;27;20034;-75
2021/12/08 15:08:23;;;;;;;5.35;3.00;;;;;;;5.83;80.36;99721.97;5303504;28;20428;-75
2021/12/08 15:10:55;;;;;;;11.10;3.40;;;;;;;5.84;81.54;99720.22;5303688;28;20027;-75
2021/12/08 15:13:32;;;;;;;10.57;3.13;;;;;;;5.81;81.32;99724.66;5301537;27;20048;-75
2021/12/08 15:16:11;;;;;;;6.57;2.30;;;;;;;5.88;81.20;99729.50;5305006;27;20035;-75
2021/12/08 15:18:42;;;;;;;7.20;2.17;;;;;;;5.93;79.87;99737.88;5298782;28;20490;-73
2021/12/08 15:21:25;;;;;;;8.70;3.40;;;;;;;5.85;80.24;99735.72;5306885;28;20079;-74
2021/12/08 15:24:07;;;;;;;10.17;2.27;;;;;;;5.81;80.08;99740.25;5311426;28;20062;-75
2021/12/08 15:26:38;;;;;;;6.90;2.53;;;;;;;5.75;80.54;99743.22;5308199;28;20270;-75
2021/12/08 15:29:38;;;;;;;8.30;2.10;;;;;;;5.75;80.82;99738.00;5304335;27;20043;-74
2021/12/08 15:32:14;;;;;;;4.47;2.50;;;;;;;5.59;81.32;99729.41;5302661;28;20104;-76
2021/12/08 15:34:46;;;;;;;9.37;2.53;;;;;;;5.56;80.26;99739.06;5309407;28;20040;-74
2021/12/08 15:37:17;;;;;;;9.17;3.13;;;;;;;5.55;80.88;99750.38;5305865;28;20031;-75
2021/12/08 15:39:56;;;;;;;9.73;3.97;;;;;;;5.49;80.83;99745.53;5307029;27;20024;-72
2021/12/08 15:42:32;;;;;;;7.97;2.90;;;;;;;5.50;81.00;99749.78;5304932;28;20027;-72
2021/12/08 15:45:06;;;;;;;9.83;3.23;;;;;;;5.44;80.52;99737.16;5301451;28;20015;-73
2021/12/08 15:47:43;;;;;;;11.75;2.90;;;;;;;5.49;81.07;99755.91;5300578;28;20494;-70
2021/12/08 15:50:44;;;;;;;7.10;2.73;;;;;;;5.39;81.04;99742.63;5301374;28;20035;-70
2021/12/08 15:53:21;;;;;;;6.73;2.00;;;;;;;5.28;81.46;99748.41;5301675;28;21534;-70
2021/12/08 15:56:05;;;;;;;6.70;2.07;;;;;;;5.30;81.71;99750.91;5301742;28;20072;-73
2021/12/08 15:58:41;;;;;;;12.98;2.90;;;;;;;5.33;82.25;99758.53;5305821;28;20118;-72
2021/12/08 16:01:20;;;;;;;16.20;5.33;;;;;;;5.29;82.66;99768.25;5304953;28;20039;-73
2021/12/08 16:03:57;;;;;;;11.40;2.30;;;;;;;5.25;81.94;99779.72;5302211;28;20054;-71
2021/12/08 16:06:37;;;;;;;11.93;2.77;;;;;;;5.18;82.06;99770.59;5315341;27;20043;-70
2021/12/08 16:09:17;;;;;;;10.97;2.93;;;;;;;5.23;82.80;99780.72;5313537;27;20051;-70
2021/12/08 16:12:05;;;;;;;7.53;2.03;;;;;;;5.14;82.92;99784.66;5314713;27;20114;-67
2021/12/08 16:14:42;;;;;;;9.10;2.87;;;;;;;5.23;82.06;99786.75;5313174;28;20388;-68
2021/12/08 16:17:15;;;;;;;12.27;2.13;;;;;;;5.23;82.25;99786.75;5310999;27;20057;-68
2021/12/08 16:20:08;;;;;;;9.83;2.37;;;;;;;5.20;82.55;99781.75;5312080;28;20058;-70
2021/12/08 16:22:40;;;;;;;8.20;2.30;;;;;;;5.08;81.91;99776.28;5307276;27;20046;-73
2021/12/08 16:25:12;;;;;;;8.07;2.87;;;;;;;5.11;82.37;99770.09;5311462;27;20043;-71
2021/12/08 16:27:44;;;;;;;10.63;2.40;;;;;;;5.12;81.80;99773.50;5309703;27;20031;-72
2021/12/08 16:30:15;;;;;;;14.17;3.27;;;;;;;5.08;81.89;99772.84;5313488;27;20095;-69
2021/12/08 16:32:46;;;;;;;11.53;2.40;;;;;;;5.00;82.59;99781.06;5315925;27;20039;-75
2021/12/08 16:35:18;;;;;;;11.73;2.37;;;;;;;5.02;82.14;99788.75;5307982;27;20146;-73
2021/12/08 16:37:49;;;;;;;9.03;3.10;;;;;;;4.92;82.44;99781.44;5306393;27;20032;-76
2021/12/08 16:43:00;;;;;;;8.20;2.77;;;;;;;4.90;82.01;99790.25;5311384;27;20117;-74
2021/12/08 16:43:17;;;;;;;12.37;2.07;;;;;;;4.86;82.51;99786.13;5311610;27;20028;-72
2021/12/08 16:45:51;;;;;;;8.13;2.20;;;;;;;4.89;82.75;99793.75;5304553;28;20084;-72
2021/12/08 16:48:28;;;;;;;8.98;3.03;;;;;;;4.78;83.07;99789.97;5303952;27;20046;-72
2021/12/08 16:50:59;;;;;;;8.87;2.60;;;;;;;4.81;82.94;99795.00;5316270;28;20472;-70
2021/12/08 16:53:30;;;;;;;9.70;3.00;;;;;;;4.67;82.81;99797.47;5314788;28;20077;-71
2021/12/08 16:56:03;;;;;;;7.33;2.80;;;;;;;4.62;82.42;99787.34;5315789;27;20110;-69
2021/12/08 16:58:34;;;;;;;7.20;1.90;;;;;;;4.72;82.62;99798.06;5312254;28;20539;-70
2021/12/08 17:01:05;;;;;;;7.57;2.23;;;;;;;4.75;82.27;99808.28;5318558;27;20047;-70
2021/12/08 17:03:37;;;;;;;7.43;2.30;;;;;;;4.66;82.66;99808.78;5314401;28;20103;-69
2021/12/08 17:06:08;;;;;;;9.43;2.13;;;;;;;4.62;82.64;99812.44;5314481;28;20035;-69
2021/12/08 17:08:41;;;;;;;7.20;2.37;;;;;;;4.64;83.27;99816.66;5311462;28;20027;-69
2021/12/08 17:11:12;;;;;;;10.53;3.47;;;;;;;4.55;83.58;99806.75;5314578;28;20015;-69
2021/12/08 17:13:44;;;;;;;9.63;2.60;;;;;;;4.56;83.18;99813.59;5314262;28;20441;-69
2021/12/08 17:16:15;;;;;;;7.67;2.40;;;;;;;4.59;83.31;99803.09;5313573;27;20404;-75
2021/12/08 17:18:46;;;;;;;5.17;2.10;;;;;;;4.60;83.52;99800.41;5311307;28;20028;-73
2021/12/08 17:21:18;;;;;;;7.43;3.00;;;;;;;4.45;83.02;99804.59;5314791;27;20016;-73
2021/12/08 17:23:49;;;;;;;8.83;2.70;;;;;;;4.58;83.54;99819.53;5316039;28;20076;-72
2021/12/08 17:26:21;;;;;;;11.57;4.23;;;;;;;4.43;84.27;99810.78;5314178;28;20161;-72
2021/12/08 17:28:52;;;;;;;13.40;3.97;;;;;;;4.48;83.97;99821.78;5312105;28;20028;-73
2021/12/08 17:31:23;;;;;;;12.37;2.50;;;;;;;4.48;83.31;99819.19;5314064;28;20023;-72
2021/12/08 17:33:55;;;;;;;10.80;3.37;;;;;;;4.32;82.99;99814.78;5314857;28;20485;-73
2021/12/08 17:36:27;;;;;;;8.20;2.73;;;;;;;4.39;84.48;99811.84;5314598;27;20427;-74
2021/12/08 17:38:58;;;;;;;9.17;3.10;;;;;;;4.32;83.59;99803.56;5317130;27;20034;-75
2021/12/08 17:41:30;;;;;;;9.47;2.90;;;;;;;4.34;83.37;99820.72;5314827;28;20028;-74
2021/12/08 17:44:01;;;;;;;6.40;2.73;;;;;;;4.31;83.63;99818.25;5314535;27;20407;-74
2021/12/08 17:46:33;;;;;;;11.07;3.37;;;;;;;4.31;83.88;99815.66;5313871;28;20023;-76
2021/12/08 17:49:06;;;;;;;7.83;2.70;;;;;;;4.32;83.86;99817.38;5312419;28;20023;-76
2021/12/08 17:51:38;;;;;;;11.07;4.57;;;;;;;4.26;84.11;99820.25;5314353;27;20075;-76
2021/12/08 17:54:10;;;;;;;12.77;3.60;;;;;;;4.29;83.85;99816.69;5321567;27;20422;-81
2021/12/08 17:56:45;;;;;;;10.30;5.30;;;;;;;4.23;83.77;99817.81;5313731;28;20055;-74
2021/12/08 17:59:18;;;;;;;10.57;4.03;;;;;;;4.12;84.17;99810.56;5316484;27;20046;-73
2021/12/08 18:01:49;;;;;;;8.23;3.03;;;;;;;4.18;84.15;99836.19;5313985;28;20371;-74
2021/12/08 18:04:21;;;;;;;11.13;3.23;;;;;;;4.23;83.83;99841.13;5313952;28;20023;-74
2021/12/08 18:06:52;;;;;;;9.07;3.17;;;;;;;4.22;84.64;99839.47;5313072;28;20680;-73
2021/12/08 18:09:24;;;;;;;12.80;3.77;;;;;;;4.26;84.29;99850.53;5312084;28;20030;-73
2021/12/08 18:11:56;;;;;;;6.43;2.63;;;;;;;4.21;84.98;99851.59;5313893;28;20375;-72
2021/12/08 18:14:27;;;;;;;15.40;3.23;;;;;;;4.11;85.09;99850.38;5311729;28;20415;-73
2021/12/08 18:17:02;;;;;;;11.60;4.00;;;;;;;4.16;84.79;99852.72;5313623;28;20119;-72
2021/12/08 18:19:33;;;;;;;11.10;3.55;;;;;;;4.20;84.52;99862.03;5311671;28;20232;-73
2021/12/08 18:22:05;;;;;;;12.10;3.53;;;;;;;4.16;85.52;99852.72;5314558;28;20028;-73
2021/12/08 18:24:36;;;;;;;9.13;2.70;;;;;;;4.18;85.25;99851.75;5313796;28;20027;-73
2021/12/08 18:27:08;;;;;;;7.70;2.50;;;;;;;4.15;85.12;99849.31;5314369;27;20031;-72
2021/12/08 18:29:39;;;;;;;8.37;2.90;;;;;;;4.10;84.39;99848.69;5311409;28;20015;-72
2021/12/08 18:32:10;;;;;;;8.57;2.90;;;;;;;4.02;84.84;99836.09;5323454;27;20115;-71
2021/12/08 18:34:42;;;;;;;8.57;2.17;;;;;;;4.08;85.74;99858.28;5314791;27;20455;-71
2021/12/08 18:37:13;;;;;;;8.30;2.43;;;;;;;3.99;85.09;99844.88;5313174;28;20035;-72
2021/12/08 18:39:45;;;;;;;6.27;2.30;;;;;;;3.99;85.66;99856.97;5310936;28;20903;-71
2021/12/08 18:42:17;;;;;;;6.07;2.50;;;;;;;3.94;85.83;99848.59;5314202;28;20085;-71
2021/12/08 18:44:50;;;;;;;6.80;2.77;;;;;;;3.95;86.41;99861.47;5310708;28;20090;-72
2021/12/08 18:47:21;;;;;;;12.47;4.23;;;;;;;3.93;86.10;99863.28;5311160;28;20031;-71
2021/12/08 18:49:54;;;;;;;11.80;3.43;;;;;;;3.77;85.77;99847.63;5310380;28;20035;-70
2021/12/08 18:52:25;;;;;;;10.97;3.30;;;;;;;3.83;85.81;99860.31;5313059;27;20027;-71
2021/12/08 18:54:58;;;;;;;9.10;2.63;;;;;;;3.91;86.36;99869.47;5312518;28;20036;-72
2021/12/08 18:57:29;;;;;;;10.43;3.10;;;;;;;3.70;87.05;99869.56;5312959;28;20027;-70
2021/12/08 19:00:06;;;;;;;9.83;3.03;;;;;;;3.77;86.36;99864.94;5310366;28;20032;-72
2021/12/08 19:02:37;;;;;;;10.77;2.77;;;;;;;3.84;86.64;99877.50;5313185;28;20027;-72
2021/12/08 19:05:13;;;;;;;6.77;2.83;;;;;;;3.68;86.80;99876.56;5313635;28;20042;-72
2021/12/08 19:07:45;;;;;;;12.93;3.80;;;;;;;3.70;87.02;99887.69;5310563;28;20561;-70
2021/12/08 19:10:17;;;;;;;9.83;3.87;;;;;;;3.69;88.25;99896.38;5312299;28;20032;-72
2021/12/08 19:12:48;;;;;;;11.40;3.33;;;;;;;3.68;86.93;99894.69;5305397;28;20660;-73
2021/12/08 19:15:21;;;;;;;11.93;3.20;;;;;;;3.71;87.00;99894.56;5312026;28;20028;-71
2021/12/08 19:17:52;;;;;;;8.07;2.93;;;;;;;3.67;86.95;99896.44;5309367;28;20020;-72
2021/12/08 19:20:25;;;;;;;8.13;3.53;;;;;;;3.72;86.59;99902.25;5311426;28;20038;-72
2021/12/08 19:22:57;;;;;;;12.57;4.03;;;;;;;3.65;87.20;99906.03;5314055;28;20374;-74
2021/12/08 19:25:28;;;;;;;12.53;4.60;;;;;;;3.56;87.08;99909.88;5312984;28;20435;-74
2021/12/08 19:28:00;;;;;;;10.40;4.03;;;;;;;3.46;87.28;99908.63;5308691;28;20027;-74
2021/12/08 19:30:33;;;;;;;25.33;9.43;;;;;;;3.54;87.15;99913.47;5313522;28;20039;-76
2021/12/08 19:33:07;;;;;;;26.40;11.83;;;;;;;3.50;87.42;99917.94;5313108;28;20074;-72
2021/12/08 19:35:39;;;;;;;23.50;11.32;;;;;;;3.48;87.51;99920.59;5314655;28;20035;-71
2021/12/08 19:38:12;;;;;;;22.03;10.97;;;;;;;3.38;88.29;99927.94;5313465;28;20540;-72
2021/12/08 19:40:44;;;;;;;19.53;8.93;;;;;;;3.37;88.05;99923.66;5315512;28;20026;-71
2021/12/08 19:43:16;;;;;;;21.23;11.23;;;;;;;3.38;88.07;99935.72;5316210;28;20545;-72
2021/12/08 19:45:50;;;;;;;24.53;12.13;;;;;;;3.27;88.36;99940.50;5312671;27;20024;-71
2021/12/08 19:48:22;;;;;;;20.35;10.18;;;;;;;3.24;88.55;99943.22;5313952;28;20016;-72
2021/12/08 19:50:53;;;;;;;19.47;10.50;;;;;;;3.26;88.81;99946.59;5318870;27;20023;-72
2021/12/08 19:53:24;;;;;;;15.93;7.10;;;;;;;3.26;88.44;99941.41;5318887;27;20057;-72
2021/12/08 19:55:56;;;;;;;12.77;6.57;;;;;;;3.17;88.95;99944.41;5326865;27;20107;-72
2021/12/08 19:58:27;;;;;;;15.70;6.23;;;;;;;3.31;88.72;99946.38;5314293;28;20023;-71
2021/12/08 20:00:58;;;;;;;15.57;7.50;;;;;;;3.21;88.89;99953.72;5316436;27;20106;-70
2021/12/08 20:03:30;;;;;;;16.23;7.23;;;;;;;3.27;89.16;99956.03;5317443;27;20026;-73
2021/12/08 20:06:02;;;;;;;12.57;5.73;;;;;;;3.24;89.26;99953.59;5316700;28;20015;-73
2021/12/08 20:08:33;;;;;;;15.07;6.37;;;;;;;3.07;89.22;99962.06;5314665;27;20111;-73
2021/12/08 20:11:05;;;;;;;16.23;8.53;;;;;;;3.22;89.73;99955.38;5324448;27;20478;-74
2021/12/08 20:13:37;;;;;;;16.53;7.67;;;;;;;3.10;89.44;99949.84;5316705;28;20039;-74
2021/12/08 20:16:08;;;;;;;18.83;8.07;;;;;;;3.12;89.37;99953.22;5315088;28;20038;-72
2021/12/08 20:18:40;;;;;;;14.77;5.73;;;;;;;3.12;89.40;99962.72;5298878;27;20037;-71
2021/12/08 20:21:11;;;;;;;13.93;7.00;;;;;;;3.07;89.55;99960.31;5306496;27;20051;-72
2021/12/08 20:23:44;;;;;;;12.87;5.30;;;;;;;3.14;90.00;99960.91;5304610;27;20040;-72
2021/12/08 20:26:20;;;;;;;7.87;4.37;;;;;;;2.99;90.10;99950.31;5305355;27;20027;-72
2021/12/08 20:28:54;;;;;;;11.60;5.43;;;;;;;3.02;90.05;99954.50;5324220;27;20034;-72
2021/12/08 20:31:27;;;;;;;;;;;;;;;3.24;89.22;99969.09;5316129;27;20020;-72
2021/12/08 20:34:00;;;;;;;11.73;5.90;;;;;;;3.08;90.32;99976.69;5305509;28;19924;-72
2021/12/08 20:36:32;;;;;;;14.70;6.00;;;;;;;2.83;90.59;99951.88;5307090;27;20042;-71
2021/12/08 20:39:04;;;;;;;15.83;6.10;;;;;;;2.97;90.53;99977.13;5307049;27;20054;-74
2021/12/08 20:41:35;;;;;;;14.57;6.60;;;;;;;2.98;90.45;99978.81;5304890;28;20071;-73
2021/12/08 20:44:07;;;;;;;16.60;6.17;;;;;;;2.96;91.27;99975.47;5306495;27;20469;-73
2021/12/08 20:46:42;;;;;;;23.67;6.87;;;;;;;2.94;90.85;99977.25;5304315;27;20019;-72
2021/12/08 20:49:14;;;;;;;19.10;7.53;;;;;;;2.90;90.67;99977.41;5314970;27;20032;-72
2021/12/08 20:51:46;;;;;;;11.37;6.07;;;;;;;2.88;91.00;99974.03;5305198;28;20386;-71
2021/12/08 20:54:17;;;;;;;15.30;6.90;;;;;;;2.82;91.53;99973.44;5305384;27;20031;-73
2021/12/08 20:56:50;;;;;;;14.00;6.10;;;;;;;2.88;91.29;99983.56;5304406;28;20043;-74
2021/12/08 20:59:26;;;;;;;12.07;5.37;;;;;;;2.85;91.76;99984.50;5306555;27;20053;-70
2021/12/08 21:02:00;;;;;;;12.73;5.83;;;;;;;2.83;90.86;99972.56;5303655;28;20035;-73
2021/12/08 21:04:34;;;;;;;19.35;6.47;;;;;;;2.84;91.29;99987.16;5305339;27;20023;-78
2021/12/08 21:07:05;;;;;;;15.27;6.57;;;;;;;2.65;91.79;99987.91;5304620;28;20057;-76
2021/12/08 21:09:37;;;;;;;16.23;6.03;;;;;;;2.60;92.21;99980.31;5309298;27;20095;-76
2021/12/08 21:12:08;;;;;;;11.30;5.60;;;;;;;2.77;91.51;99991.75;5304113;28;20568;-76
2021/12/08 21:14:42;;;;;;;15.07;6.23;;;;;;;2.73;91.60;99990.19;5308069;27;20466;-76
2021/12/08 21:17:14;;;;;;;14.25;6.20;;;;;;;2.80;91.64;99999.38;5305734;27;20454;-73
2021/12/08 21:19:45;;;;;;;15.00;7.03;;;;;;;2.82;91.90;100010.50;5348435;27;20019;-75
2021/12/08 21:22:18;;;;;;;17.17;6.47;;;;;;;2.63;91.25;99994.88;5312119;27;20472;-72
2021/12/08 21:24:49;;;;;;;16.57;7.10;;;;;;;2.69;91.91;99998.97;5302486;27;20023;-71
2021/12/08 21:27:20;;;;;;;19.73;7.07;;;;;;;2.70;92.09;100000.66;5304489;27;20026;-73
2021/12/08 21:29:52;;;;;;;16.80;6.70;;;;;;;2.59;91.98;99978.66;5304639;28;20054;-74
2021/12/08 21:32:23;;;;;;;17.17;7.67;;;;;;;2.63;92.14;99994.88;5303923;27;20069;-73
2021/12/08 21:34:59;;;;;;;18.70;8.70;;;;;;;2.58;92.41;99986.47;5309622;27;20032;-73
2021/12/08 21:37:32;;;;;;;17.87;8.17;;;;;;;2.67;92.31;99996.47;5306524;27;21483;-74
2021/12/08 21:40:05;;;;;;;20.13;8.90;;;;;;;2.53;92.46;99992.66;5303692;27;20487;-73
